sensor_id;sensor_type;location;lat;lon;timestamp;pressure;altitude;pressure_sealevel;temperature;humidity
68107;BME280;54892;47.488;19.026;2023-03-02T00:00:59;100607.47;;;3.50;71.60
68107;BME280;54892;47.488;19.026;2023-03-02T00:04:03;100600.22;;;3.52;71.25
68107;BME280;54892;47.488;19.026;2023-03-02T00:07:08;100598.75;;;3.36;71.93
68107;BME280;54892;47.488;19.026;2023-03-02T00:10:13;100599.72;;;3.35;72.00
68107;BME280;54892;47.488;19.026;2023-03-02T00:13:16;100603.72;;;3.31;71.70
68107;BME280;54892;47.488;19.026;2023-03-02T00:16:21;100591.84;;;3.22;72.22
68107;BME280;54892;47.488;19.026;2023-03-02T00:19:24;100594.13;;;3.38;71.51
68107;BME280;54892;47.488;19.026;2023-03-02T00:22:27;100605.66;;;3.22;72.02
68107;BME280;54892;47.488;19.026;2023-03-02T00:25:30;100590.41;;;3.19;71.62
68107;BME280;54892;47.488;19.026;2023-03-02T00:28:34;100591.66;;;3.30;70.47
68107;BME280;54892;47.488;19.026;2023-03-02T00:31:38;100584.00;;;3.22;70.43
68107;BME280;54892;47.488;19.026;2023-03-02T00:34:42;100588.91;;;3.38;69.32
68107;BME280;54892;47.488;19.026;2023-03-02T00:37:44;100575.03;;;2.96;69.84
68107;BME280;54892;47.488;19.026;2023-03-02T00:40:47;100573.91;;;3.12;69.40
68107;BME280;54892;47.488;19.026;2023-03-02T00:43:50;100578.84;;;3.00;69.20
68107;BME280;54892;47.488;19.026;2023-03-02T00:46:55;100574.25;;;3.02;69.05
68107;BME280;54892;47.488;19.026;2023-03-02T00:49:58;100573.44;;;3.01;68.78
68107;BME280;54892;47.488;19.026;2023-03-02T00:53:03;100566.47;;;3.09;67.77
68107;BME280;54892;47.488;19.026;2023-03-02T00:56:06;100565.84;;;3.07;67.58
68107;BME280;54892;47.488;19.026;2023-03-02T00:59:10;100557.22;;;3.06;67.40
68107;BME280;54892;47.488;19.026;2023-03-02T01:02:28;100558.63;;;3.09;67.36
68107;BME280;54892;47.488;19.026;2023-03-02T01:05:34;100551.59;;;3.02;67.51
68107;BME280;54892;47.488;19.026;2023-03-02T01:08:37;100548.53;;;2.99;66.80
68107;BME280;54892;47.488;19.026;2023-03-02T01:11:40;100546.00;;;3.12;66.36
68107;BME280;54892;47.488;19.026;2023-03-02T01:14:44;100542.19;;;3.08;66.93
68107;BME280;54892;47.488;19.026;2023-03-02T01:17:49;100542.56;;;3.05;67.11
68107;BME280;54892;47.488;19.026;2023-03-02T01:20:58;100533.88;;;2.98;67.26
68107;BME280;54892;47.488;19.026;2023-03-02T01:24:03;100528.47;;;2.93;67.57
68107;BME280;54892;47.488;19.026;2023-03-02T01:27:06;100520.59;;;2.86;67.32
68107;BME280;54892;47.488;19.026;2023-03-02T01:30:10;100506.16;;;2.90;67.00
68107;BME280;54892;47.488;19.026;2023-03-02T01:33:15;100503.72;;;2.82;67.08
68107;BME280;54892;47.488;19.026;2023-03-02T01:36:18;100502.31;;;2.79;66.64
68107;BME280;54892;47.488;19.026;2023-03-02T01:39:22;100496.56;;;2.62;67.35
68107;BME280;54892;47.488;19.026;2023-03-02T01:42:25;100490.78;;;2.67;66.92
68107;BME280;54892;47.488;19.026;2023-03-02T01:45:45;100490.84;;;2.45;67.51
68107;BME280;54892;47.488;19.026;2023-03-02T01:48:55;100485.94;;;2.35;67.19
68107;BME280;54892;47.488;19.026;2023-03-02T01:51:59;100491.00;;;2.43;66.36
68107;BME280;54892;47.488;19.026;2023-03-02T01:55:02;100487.87;;;2.48;65.45
68107;BME280;54892;47.488;19.026;2023-03-02T01:58:06;100481.03;;;2.47;65.44
68107;BME280;54892;47.488;19.026;2023-03-02T02:01:10;100479.66;;;2.51;65.31
68107;BME280;54892;47.488;19.026;2023-03-02T02:04:18;100471.94;;;2.36;65.24
68107;BME280;54892;47.488;19.026;2023-03-02T02:07:22;100464.84;;;2.52;65.13
68107;BME280;54892;47.488;19.026;2023-03-02T02:10:25;100465.00;;;2.50;64.46
68107;BME280;54892;47.488;19.026;2023-03-02T02:13:29;100465.00;;;2.50;64.49
68107;BME280;54892;47.488;19.026;2023-03-02T02:16:33;100471.81;;;2.51;64.51
68107;BME280;54892;47.488;19.026;2023-03-02T02:19:41;100472.28;;;2.55;65.09
68107;BME280;54892;47.488;19.026;2023-03-02T02:22:49;100470.50;;;2.62;65.29
68107;BME280;54892;47.488;19.026;2023-03-02T02:25:59;100474.06;;;2.54;66.06
68107;BME280;54892;47.488;19.026;2023-03-02T02:29:04;100464.00;;;2.51;66.68
68107;BME280;54892;47.488;19.026;2023-03-02T02:32:09;100472.94;;;2.64;66.64
68107;BME280;54892;47.488;19.026;2023-03-02T02:35:15;100462.28;;;2.58;67.32
68107;BME280;54892;47.488;19.026;2023-03-02T02:38:21;100467.72;;;2.64;67.37
68107;BME280;54892;47.488;19.026;2023-03-02T02:41:27;100466.06;;;2.56;68.29
68107;BME280;54892;47.488;19.026;2023-03-02T02:44:31;100460.03;;;2.55;68.68
68107;BME280;54892;47.488;19.026;2023-03-02T02:47:35;100461.44;;;2.58;68.85
68107;BME280;54892;47.488;19.026;2023-03-02T02:50:39;100454.81;;;2.55;69.11
68107;BME280;54892;47.488;19.026;2023-03-02T02:53:43;100455.16;;;2.46;68.93
68107;BME280;54892;47.488;19.026;2023-03-02T02:56:49;100457.72;;;2.39;68.37
68107;BME280;54892;47.488;19.026;2023-03-02T02:59:54;100453.91;;;2.41;67.82
68107;BME280;54892;47.488;19.026;2023-03-02T03:02:59;100455.72;;;2.41;67.47
68107;BME280;54892;47.488;19.026;2023-03-02T03:06:06;100448.28;;;2.38;67.46
68107;BME280;54892;47.488;19.026;2023-03-02T03:09:10;100447.53;;;2.44;67.14
68107;BME280;54892;47.488;19.026;2023-03-02T03:12:15;100439.16;;;2.49;66.94
68107;BME280;54892;47.488;19.026;2023-03-02T03:15:18;100436.75;;;2.47;66.69
68107;BME280;54892;47.488;19.026;2023-03-02T03:18:22;100441.34;;;2.45;66.67
68107;BME280;54892;47.488;19.026;2023-03-02T03:21:25;100437.50;;;2.41;66.28
68107;BME280;54892;47.488;19.026;2023-03-02T03:24:29;100442.66;;;2.34;66.10
68107;BME280;54892;47.488;19.026;2023-03-02T03:27:34;100434.63;;;2.36;65.84
68107;BME280;54892;47.488;19.026;2023-03-02T03:30:37;100439.91;;;2.42;65.47
68107;BME280;54892;47.488;19.026;2023-03-02T03:33:40;100446.91;;;2.42;65.08
68107;BME280;54892;47.488;19.026;2023-03-02T03:36:43;100448.56;;;2.50;64.68
68107;BME280;54892;47.488;19.026;2023-03-02T03:39:46;100450.37;;;2.21;66.11
68107;BME280;54892;47.488;19.026;2023-03-02T03:42:50;100456.63;;;2.26;66.50
68107;BME280;54892;47.488;19.026;2023-03-02T03:45:54;100465.06;;;2.28;67.17
68107;BME280;54892;47.488;19.026;2023-03-02T03:48:57;100470.06;;;2.30;67.79
68107;BME280;54892;47.488;19.026;2023-03-02T03:52:00;100471.72;;;2.09;69.70
68107;BME280;54892;47.488;19.026;2023-03-02T03:55:04;100475.16;;;2.17;69.71
68107;BME280;54892;47.488;19.026;2023-03-02T03:58:09;100485.03;;;2.21;69.60
68107;BME280;54892;47.488;19.026;2023-03-02T04:01:12;100477.66;;;2.25;69.56
68107;BME280;54892;47.488;19.026;2023-03-02T04:04:16;100482.31;;;2.30;69.75
68107;BME280;54892;47.488;19.026;2023-03-02T04:07:20;100476.84;;;2.24;70.68
68107;BME280;54892;47.488;19.026;2023-03-02T04:10:23;100480.81;;;2.20;70.81
68107;BME280;54892;47.488;19.026;2023-03-02T04:13:28;100484.22;;;2.21;71.11
68107;BME280;54892;47.488;19.026;2023-03-02T04:16:31;100475.47;;;2.28;71.07
68107;BME280;54892;47.488;19.026;2023-03-02T04:19:34;100476.31;;;2.36;71.08
68107;BME280;54892;47.488;19.026;2023-03-02T04:22:37;100481.31;;;2.31;71.35
68107;BME280;54892;47.488;19.026;2023-03-02T04:25:41;100469.28;;;2.30;71.26
68107;BME280;54892;47.488;19.026;2023-03-02T04:28:45;100474.28;;;2.31;71.23
68107;BME280;54892;47.488;19.026;2023-03-02T04:31:51;100473.38;;;2.17;70.62
68107;BME280;54892;47.488;19.026;2023-03-02T04:34:54;100468.81;;;2.26;70.19
68107;BME280;54892;47.488;19.026;2023-03-02T04:37:57;100467.78;;;2.20;69.98
68107;BME280;54892;47.488;19.026;2023-03-02T04:41:00;100465.00;;;2.22;69.89
68107;BME280;54892;47.488;19.026;2023-03-02T04:44:05;100462.09;;;2.10;69.00
68107;BME280;54892;47.488;19.026;2023-03-02T04:47:08;100455.75;;;2.19;68.86
68107;BME280;54892;47.488;19.026;2023-03-02T04:50:11;100459.19;;;2.20;68.90
68107;BME280;54892;47.488;19.026;2023-03-02T04:53:15;100466.78;;;2.21;68.80
68107;BME280;54892;47.488;19.026;2023-03-02T04:56:18;100459.62;;;2.02;68.33
68107;BME280;54892;47.488;19.026;2023-03-02T04:59:24;100457.87;;;2.09;67.88
68107;BME280;54892;47.488;19.026;2023-03-02T05:02:28;100459.88;;;2.07;67.73
68107;BME280;54892;47.488;19.026;2023-03-02T05:05:31;100458.63;;;2.03;67.54
68107;BME280;54892;47.488;19.026;2023-03-02T05:08:34;100454.03;;;2.05;67.01
68107;BME280;54892;47.488;19.026;2023-03-02T05:11:37;100451.88;;;2.08;65.95
68107;BME280;54892;47.488;19.026;2023-03-02T05:14:42;100450.94;;;2.16;65.87
68107;BME280;54892;47.488;19.026;2023-03-02T05:17:46;100465.06;;;2.07;64.87
68107;BME280;54892;47.488;19.026;2023-03-02T05:20:48;100452.66;;;2.09;65.03
68107;BME280;54892;47.488;19.026;2023-03-02T05:23:52;100453.72;;;2.15;64.64
68107;BME280;54892;47.488;19.026;2023-03-02T05:26:55;100454.53;;;2.15;63.87
68107;BME280;54892;47.488;19.026;2023-03-02T05:30:00;100454.75;;;2.20;63.76
68107;BME280;54892;47.488;19.026;2023-03-02T05:33:03;100465.84;;;2.29;62.65
68107;BME280;54892;47.488;19.026;2023-03-02T05:36:06;100470.16;;;2.15;62.61
68107;BME280;54892;47.488;19.026;2023-03-02T05:39:09;100470.53;;;2.12;63.09
68107;BME280;54892;47.488;19.026;2023-03-02T05:42:11;100463.19;;;2.22;63.30
68107;BME280;54892;47.488;19.026;2023-03-02T05:45:18;100474.84;;;2.26;62.78
68107;BME280;54892;47.488;19.026;2023-03-02T05:48:23;100466.38;;;2.18;61.60
68107;BME280;54892;47.488;19.026;2023-03-02T05:51:26;100484.53;;;2.11;62.63
68107;BME280;54892;47.488;19.026;2023-03-02T05:54:30;100478.97;;;2.14;62.04
68107;BME280;54892;47.488;19.026;2023-03-02T05:57:33;100480.91;;;2.34;61.52
68107;BME280;54892;47.488;19.026;2023-03-02T06:00:38;100480.19;;;2.18;60.74
68107;BME280;54892;47.488;19.026;2023-03-02T06:03:41;100483.03;;;2.23;61.40
68107;BME280;54892;47.488;19.026;2023-03-02T06:06:44;100480.91;;;2.34;60.77
68107;BME280;54892;47.488;19.026;2023-03-02T06:09:47;100482.56;;;2.41;59.91
68107;BME280;54892;47.488;19.026;2023-03-02T06:12:51;100483.75;;;2.39;59.48
68107;BME280;54892;47.488;19.026;2023-03-02T06:15:56;100485.84;;;2.50;58.98
68107;BME280;54892;47.488;19.026;2023-03-02T06:18:59;100487.34;;;2.59;59.10
68107;BME280;54892;47.488;19.026;2023-03-02T06:22:02;100491.22;;;2.70;58.75
68107;BME280;54892;47.488;19.026;2023-03-02T06:25:06;100491.44;;;2.76;57.76
68107;BME280;54892;47.488;19.026;2023-03-02T06:28:09;100489.34;;;2.93;56.92
68107;BME280;54892;47.488;19.026;2023-03-02T06:31:14;100490.38;;;2.98;57.22
68107;BME280;54892;47.488;19.026;2023-03-02T06:34:17;100498.88;;;3.14;55.67
68107;BME280;54892;47.488;19.026;2023-03-02T06:37:20;100497.22;;;3.48;54.61
68107;BME280;54892;47.488;19.026;2023-03-02T06:40:23;100507.94;;;5.08;51.00
68107;BME280;54892;47.488;19.026;2023-03-02T06:43:26;100516.88;;;6.48;46.85
68107;BME280;54892;47.488;19.026;2023-03-02T06:46:31;100511.41;;;7.80;43.53
68107;BME280;54892;47.488;19.026;2023-03-02T06:49:34;100521.84;;;8.65;39.83
68107;BME280;54892;47.488;19.026;2023-03-02T06:52:37;100510.91;;;9.33;39.04
68107;BME280;54892;47.488;19.026;2023-03-02T06:55:41;100513.25;;;9.75;38.38
68107;BME280;54892;47.488;19.026;2023-03-02T06:58:44;100517.94;;;9.44;38.61
68107;BME280;54892;47.488;19.026;2023-03-02T07:01:48;100521.91;;;9.18;39.04
68107;BME280;54892;47.488;19.026;2023-03-02T07:04:54;100524.25;;;8.66;40.23
68107;BME280;54892;47.488;19.026;2023-03-02T07:07:57;100524.56;;;10.73;37.29
68107;BME280;54892;47.488;19.026;2023-03-02T07:11:03;100517.47;;;10.73;36.16
68107;BME280;54892;47.488;19.026;2023-03-02T07:14:06;100528.44;;;12.36;34.54
68107;BME280;54892;47.488;19.026;2023-03-02T07:17:10;100528.63;;;12.62;32.41
68107;BME280;54892;47.488;19.026;2023-03-02T07:20:14;100517.25;;;12.67;31.92
68107;BME280;54892;47.488;19.026;2023-03-02T07:23:17;100521.41;;;13.05;31.94
68107;BME280;54892;47.488;19.026;2023-03-02T07:26:21;100517.34;;;13.51;31.76
68107;BME280;54892;47.488;19.026;2023-03-02T07:29:24;100522.44;;;13.73;30.55
68107;BME280;54892;47.488;19.026;2023-03-02T07:32:28;100516.31;;;14.76;28.87
68107;BME280;54892;47.488;19.026;2023-03-02T07:35:31;100515.94;;;15.09;27.19
68107;BME280;54892;47.488;19.026;2023-03-02T07:38:35;100516.59;;;14.74;26.82
68107;BME280;54892;47.488;19.026;2023-03-02T07:41:38;100517.88;;;15.48;27.04
68107;BME280;54892;47.488;19.026;2023-03-02T07:44:42;100519.25;;;13.86;27.37
68107;BME280;54892;47.488;19.026;2023-03-02T07:47:46;100513.28;;;13.28;27.22
68107;BME280;54892;47.488;19.026;2023-03-02T07:50:49;100509.03;;;12.25;28.89
68107;BME280;54892;47.488;19.026;2023-03-02T07:53:53;100514.13;;;12.80;28.90
68107;BME280;54892;47.488;19.026;2023-03-02T07:56:56;100509.19;;;14.45;27.27
68107;BME280;54892;47.488;19.026;2023-03-02T08:00:00;100507.87;;;14.38;27.11
68107;BME280;54892;47.488;19.026;2023-03-02T08:03:05;100510.75;;;12.47;28.33
68107;BME280;54892;47.488;19.026;2023-03-02T08:06:09;100512.91;;;13.77;27.91
68107;BME280;54892;47.488;19.026;2023-03-02T08:09:12;100512.84;;;14.65;26.75
68107;BME280;54892;47.488;19.026;2023-03-02T08:12:17;100518.28;;;15.71;37.63
68107;BME280;54892;47.488;19.026;2023-03-02T08:15:20;100516.97;;;15.13;37.57
68107;BME280;54892;47.488;19.026;2023-03-02T08:18:25;100512.84;;;14.81;48.00
68107;BME280;54892;47.488;19.026;2023-03-02T08:21:28;100518.47;;;14.48;44.55
68107;BME280;54892;47.488;19.026;2023-03-02T08:24:32;100518.47;;;13.86;50.92
68107;BME280;54892;47.488;19.026;2023-03-02T08:27:35;100525.37;;;14.34;46.29
68107;BME280;54892;47.488;19.026;2023-03-02T08:30:38;100519.28;;;14.28;45.38
68107;BME280;54892;47.488;19.026;2023-03-02T08:33:43;100515.28;;;14.30;43.22
68107;BME280;54892;47.488;19.026;2023-03-02T08:36:47;100523.00;;;13.80;40.03
68107;BME280;54892;47.488;19.026;2023-03-02T08:39:50;100513.94;;;13.71;49.54
68107;BME280;54892;47.488;19.026;2023-03-02T08:42:54;100503.28;;;13.45;30.83
68107;BME280;54892;47.488;19.026;2023-03-02T08:45:59;100507.56;;;11.52;30.88
68107;BME280;54892;47.488;19.026;2023-03-02T08:49:04;100500.97;;;10.32;33.29
68107;BME280;54892;47.488;19.026;2023-03-02T08:52:07;100495.34;;;9.77;33.98
68107;BME280;54892;47.488;19.026;2023-03-02T08:55:11;100490.84;;;9.60;34.45
68107;BME280;54892;47.488;19.026;2023-03-02T08:58:14;100492.62;;;9.72;34.46
68107;BME280;54892;47.488;19.026;2023-03-02T09:01:18;100493.53;;;9.08;35.34
68107;BME280;54892;47.488;19.026;2023-03-02T09:04:23;100497.31;;;9.00;35.50
68107;BME280;54892;47.488;19.026;2023-03-02T09:07:27;100495.59;;;9.06;35.70
68107;BME280;54892;47.488;19.026;2023-03-02T09:10:31;100487.53;;;8.72;36.71
68107;BME280;54892;47.488;19.026;2023-03-02T09:13:35;100486.59;;;8.78;36.16
68107;BME280;54892;47.488;19.026;2023-03-02T09:16:38;100490.50;;;8.63;37.30
68107;BME280;54892;47.488;19.026;2023-03-02T09:19:42;100487.53;;;8.48;37.49
68107;BME280;54892;47.488;19.026;2023-03-02T09:22:45;100489.91;;;8.49;37.89
68107;BME280;54892;47.488;19.026;2023-03-02T09:25:51;100479.53;;;8.78;37.27
68107;BME280;54892;47.488;19.026;2023-03-02T09:28:54;100476.53;;;8.75;37.49
68107;BME280;54892;47.488;19.026;2023-03-02T09:31:58;100476.66;;;8.80;37.42
68107;BME280;54892;47.488;19.026;2023-03-02T09:35:03;100477.44;;;8.80;37.25
68107;BME280;54892;47.488;19.026;2023-03-02T09:38:06;100476.97;;;8.83;37.68
68107;BME280;54892;47.488;19.026;2023-03-02T09:41:14;100479.28;;;8.68;38.43
68107;BME280;54892;47.488;19.026;2023-03-02T09:44:33;100477.47;;;8.57;38.04
68107;BME280;54892;47.488;19.026;2023-03-02T09:47:43;100473.00;;;8.69;38.65
68107;BME280;54892;47.488;19.026;2023-03-02T09:50:53;100476.19;;;8.59;38.48
68107;BME280;54892;47.488;19.026;2023-03-02T09:54:06;100474.47;;;8.77;38.78
68107;BME280;54892;47.488;19.026;2023-03-02T09:57:16;100472.72;;;8.94;38.03
68107;BME280;54892;47.488;19.026;2023-03-02T10:00:23;100472.16;;;8.80;38.23
68107;BME280;54892;47.488;19.026;2023-03-02T10:03:31;100465.53;;;8.78;38.19
68107;BME280;54892;47.488;19.026;2023-03-02T10:06:37;100464.69;;;9.13;37.34
68107;BME280;54892;47.488;19.026;2023-03-02T10:09:41;100457.75;;;8.95;38.00
68107;BME280;54892;47.488;19.026;2023-03-02T10:12:47;100454.53;;;8.93;38.61
68107;BME280;54892;47.488;19.026;2023-03-02T10:15:55;100450.53;;;8.90;38.08
68107;BME280;54892;47.488;19.026;2023-03-02T10:19:05;100442.75;;;8.95;38.27
68107;BME280;54892;47.488;19.026;2023-03-02T10:22:11;100448.13;;;8.89;37.95
68107;BME280;54892;47.488;19.026;2023-03-02T10:25:19;100454.00;;;9.20;37.66
68107;BME280;54892;47.488;19.026;2023-03-02T10:28:25;100453.59;;;9.40;37.21
68107;BME280;54892;47.488;19.026;2023-03-02T10:31:32;100442.25;;;9.39;38.16
68107;BME280;54892;47.488;19.026;2023-03-02T10:34:35;100437.81;;;9.28;37.85
68107;BME280;54892;47.488;19.026;2023-03-02T10:37:41;100438.72;;;9.34;38.24
68107;BME280;54892;47.488;19.026;2023-03-02T10:40:45;100435.59;;;9.37;37.95
68107;BME280;54892;47.488;19.026;2023-03-02T10:43:49;100435.56;;;9.49;38.17
68107;BME280;54892;47.488;19.026;2023-03-02T10:46:54;100431.03;;;9.61;38.02
68107;BME280;54892;47.488;19.026;2023-03-02T10:49:57;100429.87;;;9.86;36.90
68107;BME280;54892;47.488;19.026;2023-03-02T10:53:01;100426.50;;;9.90;37.05
68107;BME280;54892;47.488;19.026;2023-03-02T10:56:13;100416.75;;;9.91;38.35
68107;BME280;54892;47.488;19.026;2023-03-02T10:59:28;100413.25;;;10.02;38.20
68107;BME280;54892;47.488;19.026;2023-03-02T11:02:34;100409.41;;;10.10;37.91
68107;BME280;54892;47.488;19.026;2023-03-02T11:05:39;100404.34;;;10.43;37.79
68107;BME280;54892;47.488;19.026;2023-03-02T11:08:46;100407.25;;;10.07;37.65
68107;BME280;54892;47.488;19.026;2023-03-02T11:11:59;100404.81;;;10.05;37.68
68107;BME280;54892;47.488;19.026;2023-03-02T11:18:30;100396.22;;;10.10;38.38
68107;BME280;54892;47.488;19.026;2023-03-02T11:21:37;100398.38;;;10.53;38.68
68107;BME280;54892;47.488;19.026;2023-03-02T11:24:45;100395.69;;;10.30;39.21
68107;BME280;54892;47.488;19.026;2023-03-02T11:27:51;100382.00;;;10.50;40.16
68107;BME280;54892;47.488;19.026;2023-03-02T11:30:59;100391.78;;;10.72;39.92
68107;BME280;54892;47.488;19.026;2023-03-02T11:34:05;100385.25;;;10.58;40.37
68107;BME280;54892;47.488;19.026;2023-03-02T11:37:18;100382.47;;;10.47;41.68
68107;BME280;54892;47.488;19.026;2023-03-02T11:40:25;100381.59;;;10.81;41.96
68107;BME280;54892;47.488;19.026;2023-03-02T11:43:32;100379.03;;;10.91;43.39
68107;BME280;54892;47.488;19.026;2023-03-02T11:46:35;100368.91;;;11.05;43.58
68107;BME280;54892;47.488;19.026;2023-03-02T11:49:38;100368.41;;;10.86;42.53
68107;BME280;54892;47.488;19.026;2023-03-02T11:52:45;100370.09;;;10.70;41.49
68107;BME280;54892;47.488;19.026;2023-03-02T11:55:50;100355.75;;;10.88;43.49
68107;BME280;54892;47.488;19.026;2023-03-02T11:58:54;100355.56;;;10.95;44.13
68107;BME280;54892;47.488;19.026;2023-03-02T12:01:58;100359.13;;;11.06;44.91
68107;BME280;54892;47.488;19.026;2023-03-02T12:05:03;100359.94;;;10.84;45.12
68107;BME280;54892;47.488;19.026;2023-03-02T12:11:31;100353.00;;;11.27;45.59
68107;BME280;54892;47.488;19.026;2023-03-02T12:14:36;100356.16;;;11.30;46.29
68107;BME280;54892;47.488;19.026;2023-03-02T12:17:40;100348.13;;;11.47;46.07
68107;BME280;54892;47.488;19.026;2023-03-02T12:20:43;100347.56;;;11.45;46.04
68107;BME280;54892;47.488;19.026;2023-03-02T12:23:57;100342.00;;;11.41;45.68
68107;BME280;54892;47.488;19.026;2023-03-02T12:27:05;100346.56;;;11.51;45.65
68107;BME280;54892;47.488;19.026;2023-03-02T12:30:19;100339.97;;;11.53;46.01
68107;BME280;54892;47.488;19.026;2023-03-02T12:33:26;100341.34;;;11.61;46.16
68107;BME280;54892;47.488;19.026;2023-03-02T12:36:30;100341.53;;;11.17;46.81
68107;BME280;54892;47.488;19.026;2023-03-02T12:39:42;100323.47;;;11.08;46.70
68107;BME280;54892;47.488;19.026;2023-03-02T12:42:56;100329.56;;;11.36;46.79
68107;BME280;54892;47.488;19.026;2023-03-02T12:49:43;100318.53;;;11.50;46.32
68107;BME280;54892;47.488;19.026;2023-03-02T12:52:55;100322.47;;;11.85;45.06
68107;BME280;54892;47.488;19.026;2023-03-02T12:55:59;100312.41;;;11.82;45.15
68107;BME280;54892;47.488;19.026;2023-03-02T12:59:03;100318.13;;;11.68;45.76
68107;BME280;54892;47.488;19.026;2023-03-02T13:02:14;100309.38;;;11.63;45.42
68107;BME280;54892;47.488;19.026;2023-03-02T13:05:18;100309.91;;;11.65;45.52
68107;BME280;54892;47.488;19.026;2023-03-02T13:08:23;100305.16;;;11.67;45.85
68107;BME280;54892;47.488;19.026;2023-03-02T13:11:29;100292.22;;;11.70;45.86
68107;BME280;54892;47.488;19.026;2023-03-02T13:14:35;100295.50;;;11.83;45.64
68107;BME280;54892;47.488;19.026;2023-03-02T13:17:42;100291.31;;;11.92;45.46
68107;BME280;54892;47.488;19.026;2023-03-02T13:20:45;100281.50;;;11.93;45.40
68107;BME280;54892;47.488;19.026;2023-03-02T13:23:50;100275.25;;;11.61;45.67
68107;BME280;54892;47.488;19.026;2023-03-02T13:26:53;100276.34;;;11.65;46.22
68107;BME280;54892;47.488;19.026;2023-03-02T13:30:08;100279.75;;;12.03;45.28
68107;BME280;54892;47.488;19.026;2023-03-02T13:33:16;100276.09;;;12.15;44.33
68107;BME280;54892;47.488;19.026;2023-03-02T13:36:23;100272.41;;;12.21;43.90
68107;BME280;54892;47.488;19.026;2023-03-02T13:39:28;100274.03;;;12.27;43.50
68107;BME280;54892;47.488;19.026;2023-03-02T13:42:35;100267.63;;;12.13;44.09
68107;BME280;54892;47.488;19.026;2023-03-02T13:45:40;100253.50;;;11.97;44.02
68107;BME280;54892;47.488;19.026;2023-03-02T13:48:52;100250.75;;;11.71;44.38
68107;BME280;54892;47.488;19.026;2023-03-02T13:52:12;100249.91;;;11.65;45.36
68107;BME280;54892;47.488;19.026;2023-03-02T13:55:19;100241.44;;;11.63;44.77
68107;BME280;54892;47.488;19.026;2023-03-02T13:58:23;100242.56;;;11.78;45.22
68107;BME280;54892;47.488;19.026;2023-03-02T14:01:28;100242.47;;;12.05;44.33
68107;BME280;54892;47.488;19.026;2023-03-02T14:04:31;100235.50;;;11.88;44.78
68107;BME280;54892;47.488;19.026;2023-03-02T14:07:34;100234.69;;;11.88;44.84
68107;BME280;54892;47.488;19.026;2023-03-02T14:10:37;100231.09;;;12.10;43.93
68107;BME280;54892;47.488;19.026;2023-03-02T14:13:42;100216.97;;;11.88;44.57
68107;BME280;54892;47.488;19.026;2023-03-02T14:16:48;100217.44;;;11.80;44.98
68107;BME280;54892;47.488;19.026;2023-03-02T14:19:51;100217.47;;;11.85;45.26
68107;BME280;54892;47.488;19.026;2023-03-02T14:22:55;100220.25;;;12.06;44.86
68107;BME280;54892;47.488;19.026;2023-03-02T14:26:02;100221.53;;;11.98;44.70
68107;BME280;54892;47.488;19.026;2023-03-02T14:29:12;100213.81;;;11.97;44.99
68107;BME280;54892;47.488;19.026;2023-03-02T14:32:20;100219.09;;;11.97;44.28
68107;BME280;54892;47.488;19.026;2023-03-02T14:35:23;100212.19;;;11.85;44.88
68107;BME280;54892;47.488;19.026;2023-03-02T14:38:27;100206.28;;;11.68;45.26
68107;BME280;54892;47.488;19.026;2023-03-02T14:41:31;100203.41;;;11.75;45.29
68107;BME280;54892;47.488;19.026;2023-03-02T14:44:53;100214.16;;;12.06;44.69
68107;BME280;54892;47.488;19.026;2023-03-02T14:47:57;100208.75;;;11.85;45.25
68107;BME280;54892;47.488;19.026;2023-03-02T14:51:00;100211.22;;;12.07;45.02
68107;BME280;54892;47.488;19.026;2023-03-02T14:54:05;100205.66;;;12.03;45.07
68107;BME280;54892;47.488;19.026;2023-03-02T14:57:12;100197.75;;;11.98;44.88
68107;BME280;54892;47.488;19.026;2023-03-02T15:00:18;100195.25;;;11.81;44.82
68107;BME280;54892;47.488;19.026;2023-03-02T15:03:22;100205.03;;;11.86;45.03
68107;BME280;54892;47.488;19.026;2023-03-02T15:06:26;100192.44;;;11.98;44.75
68107;BME280;54892;47.488;19.026;2023-03-02T15:09:30;100194.53;;;11.96;44.49
68107;BME280;54892;47.488;19.026;2023-03-02T15:12:33;100197.59;;;11.72;45.10
68107;BME280;54892;47.488;19.026;2023-03-02T15:15:37;100183.59;;;11.77;46.21
68107;BME280;54892;47.488;19.026;2023-03-02T15:18:41;100193.66;;;11.75;45.86
68107;BME280;54892;47.488;19.026;2023-03-02T15:21:45;100189.19;;;11.81;45.45
68107;BME280;54892;47.488;19.026;2023-03-02T15:24:49;100191.72;;;11.60;46.06
68107;BME280;54892;47.488;19.026;2023-03-02T15:27:53;100191.47;;;11.67;45.72
68107;BME280;54892;47.488;19.026;2023-03-02T15:30:57;100193.84;;;11.68;45.32
68107;BME280;54892;47.488;19.026;2023-03-02T15:34:09;100196.81;;;11.72;45.36
68107;BME280;54892;47.488;19.026;2023-03-02T15:37:12;100198.09;;;11.64;45.45
68107;BME280;54892;47.488;19.026;2023-03-02T15:40:15;100195.38;;;11.49;46.10
68107;BME280;54892;47.488;19.026;2023-03-02T15:43:19;100198.78;;;11.44;46.40
68107;BME280;54892;47.488;19.026;2023-03-02T15:46:22;100200.34;;;11.45;46.36
68107;BME280;54892;47.488;19.026;2023-03-02T15:49:27;100198.69;;;11.34;46.77
68107;BME280;54892;47.488;19.026;2023-03-02T15:52:32;100202.66;;;11.31;46.86
68107;BME280;54892;47.488;19.026;2023-03-02T15:55:38;100199.75;;;11.33;46.92
68107;BME280;54892;47.488;19.026;2023-03-02T15:58:44;100203.09;;;11.18;47.44
68107;BME280;54892;47.488;19.026;2023-03-02T16:01:48;100201.25;;;11.18;47.76
68107;BME280;54892;47.488;19.026;2023-03-02T16:04:52;100215.38;;;11.02;48.47
68107;BME280;54892;47.488;19.026;2023-03-02T16:07:56;100211.56;;;10.87;48.93
68107;BME280;54892;47.488;19.026;2023-03-02T16:11:00;100206.22;;;10.77;49.20